Terminal Aerodrome Forecast
Issued by NWS

Current Version | Previous Version | Graphics & Text | Print | Product List | Glossary On
Versions: 1 2 3 4 5 6 7 8 9 10 11 12 13 14 15 16 17 18 19
225
FTUS41 KILN 200546
TAFLCK
TAF
KLCK 200546Z 2006/2106 VRB03KT P6SM SCT250
     FM201300 16005KT P6SM VCSH BKN120
     FM201700 18009KT P6SM BKN070
     FM202100 18009KT 3SM -SHRA OVC040
     FM210100 16004KT 3SM -SHRA BR OVC020
     FM210300 VRB04KT P6SM OVC012
     FM210500 36004KT P6SM OVC006=

USA.gov is the U.S. government's official web portal to all federal, state and local government web resources and services.